NCAR-RAP Real-Time Weather Data

Output produced by METARs form (21 May 2019  10:36 UTC)
found at http://weather.rap.ucar.edu/surface/
 
RJKA 211000Z 34013KT CAVOK 21/13 Q1006
RJKA 210900Z 35015KT CAVOK 23/13 Q1006
RJKA 210800Z 35018KT 9999 FEW040 23/14 Q1005
RJKA 210700Z 35020G32KT 310V010 9999 FEW040 24/14 Q1005
RJKA 210600Z 34018G28KT 310V010 9999 FEW030 23/14 Q1005
RJKA 210500Z 34014G24KT 290V020 9999 FEW030 24/14 Q1006
RJKA 210400Z 35021G31KT 9999 FEW030 24/14 Q1006
RJKA 210300Z 34018G28KT 9999 FEW030 24/15 Q1006
RJKA 210200Z 34014KT 290V020 9999 FEW030 23/14 Q1006
RJKA 210100Z 34011KT 310V020 9999 FEW030 23/15 Q1006
RJKA 210000Z 34013KT 300V020 9999 FEW030 22/14 Q1006
RJKA 202300Z 34014KT 300V010 9999 FEW030 22/14 Q1006
RJKA 202200Z 35014KT 9999 FEW030 21/13 Q1006
RJKA 202130Z 35011G24KT 300V010 9999 FEW030 21/13 Q1005
RJKA 201000Z 21009KT 9999 FEW005 BKN060 BKN150 24/24 Q1002
RJKA 200900Z 21011KT 6000 FEW004 SCT009 BKN060 25/24 Q1002
RJKA 200840Z 18007KT 5000 -SHRA FEW003 SCT009 BKN015 25/24 Q1002 RMK 1ST003 3CU009 6CU015 A2959
RJKA 200835Z 18007KT 4000 -SHRA FEW002 SCT008 BKN015 25/24 Q1002 RMK 1ST002 3CU008 6CU015 A2959
RJKA 200825Z 20010KT 2000 R03/2000N SHRA FEW002 BKN020 BKN045 25/24 Q1002 RMK 1ST002 5CU020 7SC045 A2960
RJKA 200803Z 20010KT 1000 R03/1300VP2000D +SHRA FEW002 SCT009 BKN015 25/24 Q1002 RMK 1ST002 3CU009 7CU015 A2961
RJKA 200800Z 20009KT 3000 SHRA FEW002 BKN015 BKN030 25/24 Q1002
RJKA 200742Z 19009KT 3000 SHRA FEW002 BKN015 BKN030 25/25 Q1002 RMK 1ST002 5CU015 6CU030 A2961
RJKA 200731Z 19009KT 4000 -SHRA FEW003 BKN015 BKN030 25/25 Q1002 RMK 1ST003 5CU015 6CU030 A2961
RJKA 200700Z 19009KT 6000 -SHRA FEW005 BKN025 BKN050 25/25 Q1003
RJKA 200600Z 16008KT 6000 -SHRA FEW003 BKN009 BKN020 25/24 Q1003
RJKA 200531Z 18006KT 7000 -SHRA FEW004 BKN011 BKN030 25/25 Q1003 RMK 1ST004 5CU011 6CU030 A2964
RJKA 200504Z 17007KT 5000 -SHRA FEW003 BKN009 BKN020 25/25 Q1004 RMK 1ST003 5CU009 6CU020 A2965
RJKA 200500Z 17008KT 3500 -SHRA FEW002 BKN009 BKN020 25/25 Q1004
RJKA 200444Z 17008KT 1500 R03/2000N SHRA FEW005 BKN018 BKN030 25/25 Q1004 RMK 1ST005 5CU018 7CU030 A2965
RJKA 200400Z 17010KT 9999 -SHRA FEW005 SCT020 BKN060 26/25 Q1004
RJKA 200300Z 17010KT 9999 FEW006 SCT070 BKN130 28/25 Q1005
RJKA 200200Z 18008KT 9999 FEW005 SCT010 BKN130 26/25 Q1005
RJKA 200100Z 19006KT 9999 FEW007 SCT070 BKN130 26/25 Q1005
RJKA 200000Z 18007KT 9999 FEW010 SCT070 BKN130 26/25 Q1005
RJKA 192300Z 17008KT 8000 FEW003 SCT100 BKN120 25/25 Q1005
RJKA 192216Z 16005KT 6000 FEW002 BKN100 BKN120 25/24 Q1005 RMK 1ST002 5AC100 7AC120 A2969
RJKA 192200Z 15003KT 4000 BR FEW002 BKN120 BKN/// 24/24 Q1005
RJKA 192142Z 16003KT 110V180 4000 R03/2000N BR FEW002 BKN120 BKN/// 24/24 Q1005 RMK 1ST002 6AC120 A2969
RJKA 192130Z 18005KT 2000 BR FEW002 SCT120 BKN/// 24/24 Q1005
RJKA 192113Z 20003KT 1500 R03/1400VP2000U BR FEW001 SCT120 BKN/// 24/24 Q1005 RMK 1ST001 3AC120 A2969
RJKA 191000Z 02003KT 350V060 9999 FEW015 SCT025 BKN030 25/24 Q1007
RJKA 190900Z 02006KT 9999 FEW009 BKN020 BKN025 26/24 Q1007
RJKA 190800Z 05007KT 9999 FEW015 SCT020 27/23 Q1006
RJKA 190700Z 05007KT 9999 FEW015 27/24 Q1006
RJKA 190600Z 06008KT 9999 FEW015 BKN020 27/24 Q1006
RJKA 190500Z 06008KT 9999 FEW015 SCT020 27/25 Q1007
RJKA 190400Z 06010KT 9999 FEW015 BKN020 27/24 Q1007
RJKA 190300Z 11003KT 050V150 9999 FEW012 BKN025 28/24 Q1007
RJKA 190200Z 13004KT 9999 FEW012 SCT040 26/24 Q1008
RJKA 190100Z 12004KT 9999 FEW012 BKN040 26/25 Q1008
RJKA 190000Z 32004KT 290V360 9999 FEW013 BKN040 27/24 Q1007
RJKA 182300Z 36003KT 330V030 9999 FEW015 BKN040 25/24 Q1007